KGDV

Dawson Community Airport

Glendive, Montana, USA
KGDV 210536Z 2106/2206 11011KT P6SM FEW250 FM212300 15014G23KT P6SM VCTS SCT060CB FM220400 15012KT P6SM SCT100
Issued Valid From Valid To
Jul-21 @ 05:36 UTC
(4 hours ago)
Jul-21 @ 06:00 UTC
(4 hours ago)
Jul-22 @ 06:00 UTC
(in 20 hours)
Jul-21 @ 06:00 to Jul-21 @ 23:00
KGDV 210536Z 2106/2206 11011KT P6SM FEW250
Wind Visibility Clouds
110° at 11 knots Greater than 6 miles
  • Few at 25,000' AGL
From Jul-21 @ 23:00 to Jul-22 @ 04:00
FM212300 15014G23KT P6SM VCTS SCT060CB
Wind Visibility Clouds Conditions
150° at 14 knots
 Gusting to 23 knots
Greater than 6 miles
  • Scattered at 6,000' AGL
  • Area Thunderstorm
From Jul-22 @ 04:00 to Jul-22 @ 06:00
FM220400 15012KT P6SM SCT100
Wind Visibility Clouds
150° at 12 knots Greater than 6 miles
  • Scattered at 10,000' AGL
KGDV 210536Z 2106/2206 11011KT P6SM FEW250 FM212300 15014G23KT P6SM VCTS SCT060CB FM220400 15012KT P6SM SCT100
Issued Jul-21 @ 05:36 UTC
(4 hours ago)
Valid From Jul-21 @ 06:00 UTC
(4 hours ago)
Valid To Jul-22 @ 06:00 UTC
(in 20 hours)
Jul-21 @ 06:00 - Jul-21 @ 23:00
Wind Visibility
110° at 11 knots Greater than 6 miles
Clouds
  • Few at 25,000' AGL
From Jul-21 @ 23:00 - Jul-22 @ 04:00
Wind Visibility
150° at 14 knots
 Gusting to 23 knots
Greater than 6 miles
Clouds
  • Scattered at 6,000' AGL
Conditions
  • Area Thunderstorm
From Jul-22 @ 04:00 - Jul-22 @ 06:00
Wind Visibility
150° at 12 knots Greater than 6 miles
Clouds
  • Scattered at 10,000' AGL